Time;durP1;ratioP1;P1;durP2;ratioP2;P2;SDS_P1;SDS_P2;PMS_P1;PMS_P2;Temp;Humidity;BMP_temperature;BMP_pressure;BME280_temperature;BME280_humidity;BME280_pressure;Samples;Min_cycle;Max_cycle;Signal;HPM_P1;HPM_P2
2022/12/18 00:00:14;;;;;;;2.80;2.70;;;;;;;12.49;100.00;146901.78;5091112;28;20220;-60
2022/12/18 00:02:42;;;;;;;3.20;2.80;;;;;;;12.55;100.00;149193.03;5089523;28;20192;-60
2022/12/18 00:05:09;;;;;;;2.77;2.67;;;;;;;12.54;100.00;149190.47;5091242;28;20563;-60
2022/12/18 00:07:37;;;;;;;2.63;2.27;;;;;;;12.55;100.00;149194.28;5094428;28;20192;-61
2022/12/18 00:10:05;;;;;;;2.53;2.43;;;;;;;12.56;100.00;149195.56;5094559;28;20201;-60
2022/12/18 00:12:32;;;;;;;2.43;2.33;;;;;;;12.47;100.00;149172.75;5094743;28;20618;-60
2022/12/18 00:14:59;;;;;;;2.97;2.87;;;;;;;12.57;100.00;149198.06;5094239;28;20192;-61
2022/12/18 00:17:26;;;;;;;2.80;2.70;;;;;;;12.51;100.00;149182.88;5094383;28;20283;-60
2022/12/18 00:19:54;;;;;;;2.80;2.70;;;;;;;12.43;100.00;149163.91;5094501;28;20657;-60
2022/12/18 00:22:21;;;;;;;2.80;2.70;;;;;;;12.62;100.00;149212.00;5094660;28;20539;-60
2022/12/18 00:24:48;;;;;;;2.43;2.33;;;;;;;12.65;100.00;149218.31;5094144;28;20176;-61
2022/12/18 00:27:15;;;;;;;2.50;2.40;;;;;;;12.64;100.00;149217.09;5093977;28;20656;-61
2022/12/18 00:29:41;;;;;;;2.63;2.53;;;;;;;12.70;100.00;149230.97;5094142;28;20184;-61
2022/12/18 00:32:08;;;;;;;2.50;2.40;;;;;;;12.57;100.00;149199.31;5092772;28;20184;-60
2022/12/18 00:34:35;;;;;;;2.53;2.43;;;;;;;12.57;100.00;149198.06;5093922;28;20281;-60
2022/12/18 00:37:03;;;;;;;2.90;2.70;;;;;;;12.45;100.00;149167.69;5094306;28;20195;-60
2022/12/18 00:39:30;;;;;;;2.80;2.70;;;;;;;12.43;100.00;149162.63;5093981;28;20262;-60
2022/12/18 00:44:42;;;;;;;2.63;2.53;;;;;;;12.23;100.00;149114.50;5093906;28;20504;-60
2022/12/18 00:47:08;;;;;;;2.90;2.80;;;;;;;12.20;100.00;149106.94;5092407;28;20188;-59
2022/12/18 00:49:35;;;;;;;2.83;2.73;;;;;;;12.27;100.00;149124.63;5093662;28;20231;-60
2022/12/18 00:52:03;;;;;;;2.70;2.60;;;;;;;12.29;100.00;149128.44;5093674;28;20632;-60
2022/12/18 00:54:31;;;;;;;3.00;2.90;;;;;;;12.18;100.00;149101.84;5093844;28;20573;-61
2022/12/18 00:56:58;;;;;;;2.60;2.50;;;;;;;12.18;100.00;149101.84;5093535;28;20200;-59
2022/12/18 00:59:24;;;;;;;2.87;2.77;;;;;;;12.16;100.00;149095.53;5093844;28;20188;-60
2022/12/18 01:01:51;;;;;;;2.83;2.73;;;;;;;12.16;100.00;149096.81;5093470;28;20566;-61
2022/12/18 01:04:18;;;;;;;2.70;2.60;;;;;;;12.09;100.00;149077.84;5093413;28;20180;-60
2022/12/18 01:06:45;;;;;;;3.33;3.13;;;;;;;12.13;100.00;149089.22;5093704;28;20184;-60
2022/12/18 01:09:13;;;;;;;3.10;3.00;;;;;;;12.09;100.00;149079.09;5093266;28;20271;-60
2022/12/18 01:11:40;;;;;;;2.80;2.70;;;;;;;12.11;100.00;149084.16;5093593;28;20642;-60
2022/12/18 01:14:09;;;;;;;2.50;2.40;;;;;;;12.12;100.00;149085.41;5093418;28;20235;-60
2022/12/18 01:16:36;;;;;;;2.73;2.63;;;;;;;12.13;100.00;149087.97;5092831;28;20184;-60
2022/12/18 01:19:03;;;;;;;2.70;2.60;;;;;;;12.07;100.00;149074.03;5092602;28;20195;-61
2022/12/18 01:21:30;;;;;;;3.00;2.90;;;;;;;12.21;100.00;149108.22;5093018;28;20259;-60
2022/12/18 01:23:57;;;;;;;2.70;2.60;;;;;;;12.20;100.00;149106.94;5093020;28;20185;-60
2022/12/18 01:26:29;;;;;;;2.90;2.70;;;;;;;12.26;100.00;149122.09;5093060;28;20717;-60
2022/12/18 01:28:56;;;;;;;2.70;2.60;;;;;;;12.29;100.00;149128.44;5092929;28;20211;-60
2022/12/18 01:31:24;;;;;;;2.73;2.53;;;;;;;12.13;100.00;149087.97;5092843;28;20279;-60
2022/12/18 01:33:52;;;;;;;2.70;2.60;;;;;;;12.35;100.00;149143.63;5092656;28;20208;-60
2022/12/18 01:36:21;;;;;;;2.97;2.83;;;;;;;12.42;100.00;149160.09;5093181;28;20245;-60
2022/12/18 01:38:48;;;;;;;2.80;2.60;;;;;;;12.44;100.00;149165.13;5092947;28;20188;-61
2022/12/18 01:41:17;;;;;;;5.70;2.40;;;;;;;12.38;100.00;149149.97;5092746;28;20548;-60
2022/12/18 01:43:52;;;;;;;2.70;2.60;;;;;;;12.28;100.00;149127.19;5093025;28;20595;-60
2022/12/18 01:46:21;;;;;;;3.00;2.70;;;;;;;12.30;100.00;149132.25;5092850;28;20188;-61
2022/12/18 01:48:52;;;;;;;3.23;3.10;;;;;;;12.26;100.00;149122.09;5092533;28;20188;-60
2022/12/18 01:51:19;;;;;;;2.93;2.70;;;;;;;12.21;100.00;149108.22;5092789;28;20207;-61
2022/12/18 01:53:47;;;;;;;2.63;2.53;;;;;;;12.11;100.00;149084.16;5092372;28;20246;-60
2022/12/18 01:56:16;;;;;;;2.80;2.70;;;;;;;12.12;100.00;149086.69;5092400;28;20184;-60
2022/12/18 01:58:53;;;;;;;2.90;2.80;;;;;;;11.92;100.00;149036.06;5092446;28;20184;-60
2022/12/18 02:01:21;;;;;;;2.63;2.53;;;;;;;11.93;100.00;149037.31;5092359;28;20180;-60
2022/12/18 02:03:48;;;;;;;2.60;2.50;;;;;;;11.92;100.00;149036.06;5091099;28;20203;-61
2022/12/18 02:06:20;;;;;;;3.07;2.97;;;;;;;11.93;100.00;149038.56;5092247;28;20184;-61
2022/12/18 02:08:59;;;;;;;3.10;2.80;;;;;;;12.09;100.00;149077.84;5092220;28;20193;-60
2022/12/18 02:11:39;;;;;;;2.90;2.80;;;;;;;11.95;100.00;149043.66;5092450;28;20219;-61
2022/12/18 02:14:18;;;;;;;3.30;3.20;;;;;;;11.91;100.00;149033.53;5092270;28;20302;-60
2022/12/18 02:16:52;;;;;;;3.00;2.90;;;;;;;11.73;100.00;148987.97;5092370;28;20635;-61
2022/12/18 02:19:40;;;;;;;3.07;2.97;;;;;;;11.54;100.00;148939.88;5092249;28;20531;-60
2022/12/18 02:22:19;;;;;;;2.83;2.73;;;;;;;11.52;100.00;147705.16;5091854;28;20547;-60
2022/12/18 02:24:57;;;;;;;3.40;3.30;;;;;;;11.57;100.00;148592.31;5092028;28;20187;-61
2022/12/18 02:27:25;;;;;;;3.63;3.47;;;;;;;11.68;100.00;148975.25;5091920;28;20583;-60
2022/12/18 02:29:55;;;;;;;3.17;2.93;;;;;;;11.68;100.00;148976.53;5091718;28;20191;-60
2022/12/18 02:32:28;;;;;;;3.33;3.23;;;;;;;11.71;100.00;148982.88;5092145;28;20184;-60
2022/12/18 02:34:58;;;;;;;3.03;2.93;;;;;;;11.78;100.00;149001.91;5092006;28;20204;-60
2022/12/18 02:37:28;;;;;;;3.10;3.00;;;;;;;11.85;100.00;149018.34;5092283;28;20230;-60
2022/12/18 02:39:59;;;;;;;3.40;3.30;;;;;;;11.84;100.00;149015.78;5091667;28;20188;-60
2022/12/18 02:42:29;;;;;;;3.27;3.17;;;;;;;11.87;100.00;149023.41;5091643;28;20220;-61
2022/12/18 02:44:55;;;;;;;3.43;3.33;;;;;;;11.92;100.00;149034.81;5091573;28;20191;-59
2022/12/18 02:47:25;;;;;;;2.43;2.33;;;;;;;11.82;100.00;149010.75;5091624;28;20184;-60
2022/12/18 02:50:02;;;;;;;2.67;2.57;;;;;;;11.77;100.00;148999.38;5091522;28;20187;-61
2022/12/18 02:52:37;;;;;;;2.63;2.53;;;;;;;11.66;100.00;148971.50;5091482;28;20191;-60
2022/12/18 02:55:16;;;;;;;2.93;2.73;;;;;;;11.64;100.00;148965.16;5091698;28;20630;-60
2022/12/18 02:57:50;;;;;;;3.30;3.00;;;;;;;11.59;100.00;148952.50;5091342;28;20208;-60
2022/12/18 03:00:22;;;;;;;2.87;2.77;;;;;;;11.40;100.00;148905.72;5091623;28;20211;-60
2022/12/18 03:02:56;;;;;;;3.50;3.40;;;;;;;11.37;100.00;148898.13;5091323;28;20195;-61
2022/12/18 03:05:28;;;;;;;3.67;3.57;;;;;;;11.37;100.00;148899.34;5091583;28;20184;-60
2022/12/18 03:08:01;;;;;;;3.37;3.27;;;;;;;11.29;100.00;148589.41;5091652;28;20562;-60
2022/12/18 03:10:32;;;;;;;3.30;3.20;;;;;;;11.26;100.00;142495.69;5091238;28;20184;-60
2022/12/18 03:13:05;;;;;;;3.83;3.63;;;;;;;11.14;100.00;139806.91;5091534;28;20180;-60
2022/12/18 03:15:36;;;;;;;4.07;3.90;;;;;;;11.30;100.00;142825.88;5091154;28;20215;-60
2022/12/18 03:18:08;;;;;;;3.30;3.20;;;;;;;11.32;100.00;146231.81;5091471;28;20611;-60
2022/12/18 03:20:38;;;;;;;3.00;2.90;;;;;;;11.32;100.00;145398.47;5091532;28;20295;-61
2022/12/18 03:23:10;;;;;;;3.13;2.93;;;;;;;11.20;100.00;146413.25;5091473;28;20650;-61
2022/12/18 03:25:40;;;;;;;3.13;3.03;;;;;;;11.46;100.00;148922.13;5091080;28;20725;-60
2022/12/18 03:28:11;;;;;;;3.07;2.97;;;;;;;11.43;100.00;148913.28;5091498;28;20628;-61
2022/12/18 03:30:41;;;;;;;3.40;3.10;;;;;;;11.38;100.00;148901.91;5091162;28;20188;-62
2022/12/18 03:33:12;;;;;;;3.37;3.27;;;;;;;11.31;100.00;148396.13;5091041;28;20214;-60
2022/12/18 03:35:42;;;;;;;3.13;3.03;;;;;;;11.46;100.00;146544.38;5091325;28;20590;-61
2022/12/18 03:38:11;;;;;;;3.23;3.10;;;;;;;11.55;100.00;148942.38;5090971;28;20555;-60
2022/12/18 03:41:00;;;;;;;3.33;3.10;;;;;;;11.55;100.00;148943.63;5092107;28;20191;-61
2022/12/18 03:43:43;;;;;;;2.97;2.87;;;;;;;11.50;100.00;148929.75;5095050;28;20188;-60
2022/12/18 03:46:21;;;;;;;3.20;3.10;;;;;;;11.49;100.00;148927.22;5095198;28;20195;-60
2022/12/18 03:48:57;;;;;;;3.10;3.00;;;;;;;11.45;100.00;148919.63;5095129;28;20650;-60
2022/12/18 03:51:27;;;;;;;2.30;2.20;;;;;;;11.37;100.00;148898.13;5095147;28;20191;-60
2022/12/18 03:53:59;;;;;;;2.73;2.53;;;;;;;11.26;100.00;148871.56;5095009;28;20187;-60
2022/12/18 03:56:30;;;;;;;2.57;2.47;;;;;;;11.32;100.00;148886.75;5095349;28;20206;-60
2022/12/18 03:59:02;;;;;;;3.63;2.37;;;;;;;11.28;100.00;148876.63;5094998;28;20631;-61
2022/12/18 04:01:33;;;;;;;2.60;2.50;;;;;;;11.26;100.00;148871.56;5094931;28;20686;-60
2022/12/18 04:04:01;;;;;;;2.00;1.90;;;;;;;11.41;100.00;148908.25;5094899;28;20647;-60
2022/12/18 04:06:29;;;;;;;2.30;2.20;;;;;;;11.44;100.00;148917.09;5094575;28;20188;-60
2022/12/18 04:08:58;;;;;;;2.27;2.17;;;;;;;11.38;100.00;148901.91;5094572;28;20184;-61
2022/12/18 04:11:25;;;;;;;2.70;2.50;;;;;;;11.42;100.00;148910.75;5094481;28;20180;-62
2022/12/18 04:13:58;;;;;;;3.10;3.00;;;;;;;11.32;100.00;148885.47;5094708;28;20184;-60
2022/12/18 04:16:25;;;;;;;2.90;2.80;;;;;;;11.14;100.00;148839.94;5094447;28;20233;-59
2022/12/18 04:18:52;;;;;;;2.70;2.60;;;;;;;11.32;100.00;148886.75;5094576;28;20502;-60
2022/12/18 04:21:20;;;;;;;2.93;2.83;;;;;;;11.29;100.00;148879.13;5094259;28;20184;-60
2022/12/18 04:23:47;;;;;;;3.03;2.93;;;;;;;11.37;100.00;148899.34;5094506;28;20180;-61
2022/12/18 04:26:13;;;;;;;3.53;3.33;;;;;;;11.33;100.00;148889.25;5094387;28;20236;-61
2022/12/18 04:28:40;;;;;;;6.03;3.20;;;;;;;11.37;100.00;148899.34;5094459;28;20184;-60
2022/12/18 04:31:08;;;;;;;3.47;3.30;;;;;;;11.32;100.00;148885.47;5094039;28;20531;-60
2022/12/18 04:33:35;;;;;;;3.80;3.60;;;;;;;11.23;100.00;148863.97;5093986;28;20187;-60
2022/12/18 04:36:02;;;;;;;4.20;4.00;;;;;;;11.22;100.00;148861.44;5094122;28;20220;-61
2022/12/18 04:38:29;;;;;;;4.40;4.20;;;;;;;11.12;100.00;148836.13;5093970;28;20192;-62
2022/12/18 04:40:56;;;;;;;9.00;4.20;;;;;;;11.08;100.00;148826.00;5094148;28;20203;-61
2022/12/18 04:43:23;;;;;;;4.10;3.90;;;;;;;11.20;100.00;148855.13;5093847;28;20189;-61
2022/12/18 04:45:49;;;;;;;5.33;5.03;;;;;;;11.07;100.00;148822.25;5094010;28;20666;-60
2022/12/18 04:48:18;;;;;;;5.53;5.23;;;;;;;10.94;100.00;148790.63;5093704;28;20184;-60
2022/12/18 04:50:45;;;;;;;5.50;5.30;;;;;;;10.87;100.00;148772.91;5093688;28;20188;-60
2022/12/18 04:53:12;;;;;;;5.40;5.10;;;;;;;10.69;100.00;148727.44;5092538;28;20227;-60
2022/12/18 04:55:38;;;;;;;5.03;4.83;;;;;;;10.81;100.00;148757.75;5093806;28;20207;-61
2022/12/18 04:58:05;;;;;;;7.90;6.40;;;;;;;10.76;100.00;148746.38;5093794;28;20215;-60
2022/12/18 05:00:32;;;;;;;7.50;6.90;;;;;;;10.27;100.00;148623.75;5093568;28;20554;-61
2022/12/18 05:03:01;;;;;;;7.13;6.50;;;;;;;10.50;100.00;148681.91;5093609;28;20192;-59
2022/12/18 05:05:30;;;;;;;6.60;6.30;;;;;;;10.50;100.00;148681.91;5093396;28;20184;-61
2022/12/18 05:07:56;;;;;;;7.53;6.93;;;;;;;10.46;100.00;148670.53;5093326;28;20211;-60
2022/12/18 05:10:23;;;;;;;6.97;6.60;;;;;;;10.38;100.00;148650.31;5093616;28;20192;-60
2022/12/18 05:13:00;;;;;;;6.87;6.57;;;;;;;10.43;100.00;148662.94;5093192;28;20623;-62
2022/12/18 05:15:28;;;;;;;6.77;6.47;;;;;;;10.43;100.00;148664.22;5093433;28;20646;-61
2022/12/18 05:17:55;;;;;;;6.77;6.27;;;;;;;10.39;100.00;148654.13;5093156;28;20207;-60
2022/12/18 05:20:22;;;;;;;6.93;6.60;;;;;;;10.29;100.00;148627.56;5093096;28;20192;-60
2022/12/18 05:22:51;;;;;;;8.03;7.60;;;;;;;10.11;100.00;148583.25;5093056;28;20196;-60
2022/12/18 05:25:18;;;;;;;9.57;7.80;;;;;;;9.88;100.00;148526.44;5093107;28;20614;-60
2022/12/18 05:27:45;;;;;;;8.50;8.00;;;;;;;9.98;100.00;148551.69;5093094;28;20193;-61
2022/12/18 05:30:13;;;;;;;9.40;8.60;;;;;;;9.79;100.00;148503.69;5093219;28;20511;-59
2022/12/18 05:32:40;;;;;;;9.70;9.00;;;;;;;9.79;100.00;148502.44;5092911;28;20188;-60
2022/12/18 05:35:09;;;;;;;9.73;9.10;;;;;;;9.61;100.00;148459.47;5092640;28;20214;-61
2022/12/18 05:37:37;;;;;;;12.67;9.70;;;;;;;9.57;100.00;148449.38;5093062;28;20177;-60
2022/12/18 05:40:06;;;;;;;11.17;10.20;;;;;;;9.48;100.00;148426.63;5092731;28;20196;-60
2022/12/18 05:42:33;;;;;;;10.13;9.43;;;;;;;9.39;100.00;148403.91;5092962;28;20554;-60
2022/12/18 05:45:00;;;;;;;10.33;9.47;;;;;;;9.45;100.00;148419.06;5092548;28;20181;-61
2022/12/18 05:47:28;;;;;;;11.03;10.23;;;;;;;9.41;100.00;148408.97;5092852;28;20646;-62
2022/12/18 05:49:55;;;;;;;11.87;10.90;;;;;;;9.32;100.00;148386.22;5092480;28;20195;-60
2022/12/18 05:52:22;;;;;;;10.27;9.67;;;;;;;9.31;100.00;148383.69;5093196;28;20188;-61
2022/12/18 05:54:49;;;;;;;11.40;10.50;;;;;;;9.35;100.00;148392.53;5092328;28;20207;-60
2022/12/18 05:57:17;;;;;;;11.77;10.67;;;;;;;9.28;100.00;148376.13;5092699;28;20238;-62
2022/12/18 05:59:44;;;;;;;12.67;11.57;;;;;;;9.25;100.00;148368.53;5092376;28;20187;-61
2022/12/18 06:02:11;;;;;;;11.97;10.77;;;;;;;9.17;100.00;148348.31;5092322;28;20192;-61
2022/12/18 06:04:38;;;;;;;11.87;10.80;;;;;;;9.26;100.00;148369.78;5092045;28;20191;-60
2022/12/18 06:07:05;;;;;;;12.87;11.50;;;;;;;9.36;100.00;148396.34;5092626;28;20635;-60
2022/12/18 06:09:32;;;;;;;12.00;11.00;;;;;;;9.43;100.00;148412.72;5092264;28;20221;-60
2022/12/18 06:11:58;;;;;;;13.00;11.90;;;;;;;9.39;100.00;148403.91;5092057;28;20275;-61
2022/12/18 06:14:27;;;;;;;13.83;12.40;;;;;;;9.27;100.00;148373.59;5092510;28;20519;-60
2022/12/18 06:16:54;;;;;;;16.33;13.87;;;;;;;9.24;100.00;148366.03;5092221;28;20595;-61
2022/12/18 06:19:21;;;;;;;14.87;13.40;;;;;;;9.31;100.00;148383.69;5092364;28;20562;-60
2022/12/18 06:21:49;;;;;;;14.53;13.13;;;;;;;9.18;100.00;148350.88;5091872;28;20185;-61
2022/12/18 06:24:16;;;;;;;15.17;13.53;;;;;;;9.17;100.00;148349.59;5092028;28;20263;-62
2022/12/18 06:26:43;;;;;;;19.07;14.57;;;;;;;9.09;100.00;148329.41;5091928;28;20731;-60
2022/12/18 06:29:10;;;;;;;14.30;12.90;;;;;;;9.04;100.00;148316.75;5092317;28;20599;-61
2022/12/18 06:31:38;;;;;;;14.70;13.27;;;;;;;8.91;100.00;148282.72;5092328;28;20200;-61
2022/12/18 06:34:05;;;;;;;14.73;13.23;;;;;;;8.92;100.00;148286.47;5091838;28;20184;-61
2022/12/18 06:36:32;;;;;;;14.20;12.90;;;;;;;8.88;100.00;148276.38;5092112;28;20227;-60
2022/12/18 06:38:59;;;;;;;14.00;12.67;;;;;;;8.86;100.00;148270.09;5092065;28;20626;-60
2022/12/18 06:41:26;;;;;;;14.17;12.77;;;;;;;8.95;100.00;148292.81;5091847;28;20191;-60
2022/12/18 06:43:53;;;;;;;14.57;13.13;;;;;;;8.87;100.00;148273.84;5092287;28;20633;-60
2022/12/18 06:46:20;;;;;;;14.73;13.17;;;;;;;8.91;100.00;148283.94;5092121;28;20195;-60
2022/12/18 06:48:51;;;;;;;15.97;13.53;;;;;;;8.86;100.00;148270.09;5091952;28;20584;-60
2022/12/18 06:51:20;;;;;;;15.03;13.60;;;;;;;8.92;100.00;148285.22;5091607;28;20191;-61
2022/12/18 06:53:47;;;;;;;16.27;14.40;;;;;;;8.88;100.00;148275.09;5091512;28;20185;-60
2022/12/18 06:56:14;;;;;;;15.43;13.60;;;;;;;8.84;100.00;148266.28;5091167;28;20214;-62
2022/12/18 06:58:41;;;;;;;18.33;13.80;;;;;;;8.78;100.00;148249.91;5091480;28;20180;-61
2022/12/18 07:01:10;;;;;;;18.77;15.10;;;;;;;8.66;100.00;148222.09;5091240;28;20180;-61
2022/12/18 07:03:38;;;;;;;16.93;15.13;;;;;;;8.57;100.00;148199.38;5091355;28;20184;-60
2022/12/18 07:06:07;;;;;;;16.70;14.57;;;;;;;8.70;100.00;148232.19;5091612;28;20176;-61
2022/12/18 07:08:34;;;;;;;19.73;15.30;;;;;;;8.66;100.00;148220.81;5091338;28;20188;-60
2022/12/18 07:11:04;;;;;;;19.03;15.60;;;;;;;8.74;100.00;148241.06;5091080;28;20195;-60
2022/12/18 07:13:31;;;;;;;18.40;15.53;;;;;;;8.75;100.00;148242.28;5091244;28;20184;-60
2022/12/18 07:16:04;;;;;;;20.70;16.03;;;;;;;8.75;100.00;148242.28;5092874;28;20208;-60
2022/12/18 07:18:31;;;;;;;26.77;16.97;;;;;;;8.70;100.00;148232.19;5095392;28;20190;-60
2022/12/18 07:20:58;;;;;;;18.13;16.13;;;;;;;8.61;100.00;148209.47;5095693;28;20627;-61
2022/12/18 07:23:26;;;;;;;22.37;16.23;;;;;;;8.55;100.00;148194.34;5095255;28;20188;-61
2022/12/18 07:25:53;;;;;;;21.57;16.30;;;;;;;8.59;100.00;148203.19;5095108;28;20228;-60
2022/12/18 07:28:20;;;;;;;21.23;16.47;;;;;;;8.40;100.00;148155.25;5095222;28;20196;-60
2022/12/18 07:30:47;;;;;;;20.90;17.17;;;;;;;8.46;100.00;148171.63;5095214;28;20187;-61
2022/12/18 07:33:13;;;;;;;22.53;16.93;;;;;;;8.38;100.00;148151.44;5095344;28;20199;-60
2022/12/18 07:35:40;;;;;;;30.30;17.50;;;;;;;8.58;100.00;148201.91;5095226;28;20223;-59
2022/12/18 07:38:07;;;;;;;23.07;17.23;;;;;;;8.41;100.00;148159.00;5095359;28;20554;-60
2022/12/18 07:40:35;;;;;;;22.50;16.83;;;;;;;8.30;100.00;148131.25;5095077;28;20188;-60
2022/12/18 07:43:02;;;;;;;22.43;16.57;;;;;;;8.42;100.00;148160.28;5094995;28;20183;-62
2022/12/18 07:45:29;;;;;;;24.07;17.23;;;;;;;8.26;100.00;148121.13;5094910;28;20184;-60
2022/12/18 07:47:56;;;;;;;22.43;16.47;;;;;;;8.17;100.00;148098.41;5094937;28;20180;-62
2022/12/18 07:50:23;;;;;;;28.07;17.27;;;;;;;8.25;100.00;148118.59;5095101;28;20184;-59
2022/12/18 07:52:50;;;;;;;27.40;17.00;;;;;;;8.19;100.00;148103.44;5095074;28;20192;-61
2022/12/18 07:55:17;;;;;;;27.40;17.77;;;;;;;8.05;100.00;148068.13;5094568;28;20204;-61
2022/12/18 07:57:46;;;;;;;27.20;17.30;;;;;;;8.45;100.00;148169.09;5094771;28;20188;-60
2022/12/18 08:00:14;;;;;;;20.93;17.07;;;;;;;8.42;100.00;148161.53;5094584;28;20279;-60
2022/12/18 08:02:40;;;;;;;25.40;17.63;;;;;;;8.44;100.00;148166.59;5094609;28;20199;-60
2022/12/18 08:05:08;;;;;;;25.63;18.07;;;;;;;8.43;100.00;148162.81;5093374;28;20184;-60
2022/12/18 08:07:35;;;;;;;24.10;17.33;;;;;;;8.51;100.00;148183.00;5094607;28;20237;-61
2022/12/18 08:10:02;;;;;;;25.47;17.77;;;;;;;8.56;100.00;148196.88;5094395;28;20192;-61
2022/12/18 08:12:28;;;;;;;23.87;17.47;;;;;;;8.56;100.00;148196.88;5094504;28;20187;-60
2022/12/18 08:14:57;;;;;;;23.63;17.73;;;;;;;8.56;100.00;148196.88;5094410;28;20188;-60
2022/12/18 08:17:23;;;;;;;22.07;16.77;;;;;;;8.61;100.00;148209.47;5094638;28;20670;-60
2022/12/18 08:19:50;;;;;;;25.03;17.13;;;;;;;8.62;100.00;148212.00;5094291;28;20184;-59
2022/12/18 08:22:17;;;;;;;21.10;17.00;;;;;;;8.68;100.00;148227.16;5094593;28;20657;-60
2022/12/18 08:24:44;;;;;;;25.63;17.53;;;;;;;8.76;100.00;148244.81;5094588;28;20184;-60
2022/12/18 08:27:11;;;;;;;25.40;17.93;;;;;;;8.86;100.00;148270.09;5093804;28;20581;-60
2022/12/18 08:29:38;;;;;;;22.00;17.63;;;;;;;8.62;100.00;148212.00;5094142;28;20194;-60
2022/12/18 08:32:06;;;;;;;25.30;18.10;;;;;;;8.87;100.00;148272.63;5094033;28;20180;-60
2022/12/18 08:34:33;;;;;;;22.83;17.33;;;;;;;8.82;100.00;148261.25;5094022;28;20191;-61
2022/12/18 08:37:00;;;;;;;28.00;18.30;;;;;;;8.71;100.00;148234.72;5094529;28;20223;-60
2022/12/18 08:39:27;;;;;;;29.23;19.53;;;;;;;8.57;100.00;148199.38;5093922;28;20191;-61
2022/12/18 08:44:38;;;;;;;26.00;19.00;;;;;;;8.60;100.00;148206.97;5094140;28;20171;-60
2022/12/18 08:47:07;;;;;;;28.63;19.20;;;;;;;8.53;100.00;148188.06;5093773;28;20180;-60
2022/12/18 08:49:35;;;;;;;31.93;19.30;;;;;;;8.67;100.00;148224.63;5093720;28;20184;-60
2022/12/18 08:52:03;;;;;;;27.63;19.60;;;;;;;8.60;100.00;148206.97;5093656;28;20188;-60
2022/12/18 08:54:30;;;;;;;25.63;18.30;;;;;;;8.59;100.00;148204.44;5093769;28;20513;-60
2022/12/18 08:56:57;;;;;;;28.17;18.70;;;;;;;8.52;100.00;148186.78;5093651;28;20203;-60
2022/12/18 08:59:24;;;;;;;25.37;18.53;;;;;;;8.54;100.00;148191.81;5093752;28;20188;-61
2022/12/18 09:01:51;;;;;;;26.87;19.97;;;;;;;8.59;100.00;148204.44;5093843;28;20647;-64
2022/12/18 09:04:19;;;;;;;28.03;19.20;;;;;;;8.53;100.00;148189.28;5093828;28;20184;-64
2022/12/18 09:06:46;;;;;;;25.23;18.60;;;;;;;8.67;100.00;148224.63;5093432;28;20184;-65
2022/12/18 09:09:13;;;;;;;27.33;19.20;;;;;;;8.68;100.00;148225.91;5093380;28;20184;-64
2022/12/18 09:11:40;;;;;;;26.77;19.27;;;;;;;8.51;100.00;148183.00;5092458;28;20678;-63
2022/12/18 09:14:07;;;;;;;30.77;20.40;;;;;;;8.56;100.00;148195.63;5093571;28;20195;-64
2022/12/18 09:16:34;;;;;;;31.10;20.33;;;;;;;8.62;100.00;148210.72;5093194;28;20211;-65
2022/12/18 09:19:04;;;;;;;31.77;19.73;;;;;;;8.60;100.00;148206.97;5093113;28;20184;-65
2022/12/18 09:21:34;;;;;;;31.90;19.03;;;;;;;8.70;100.00;148230.91;5093389;28;20688;-64
2022/12/18 09:24:01;;;;;;;33.70;20.73;;;;;;;8.76;100.00;148244.81;5093357;28;20192;-66
2022/12/18 09:26:28;;;;;;;32.20;20.63;;;;;;;8.94;100.00;148291.53;5093060;28;20224;-64
2022/12/18 09:28:55;;;;;;;30.53;19.57;;;;;;;9.01;100.00;148309.19;5093121;28;20189;-64
2022/12/18 09:31:25;;;;;;;27.33;19.03;;;;;;;8.98;100.00;148300.38;5093015;28;20188;-64
2022/12/18 09:33:52;;;;;;;29.90;19.57;;;;;;;9.14;100.00;148340.75;5093276;28;20625;-65
2022/12/18 09:36:19;;;;;;;26.73;19.50;;;;;;;9.20;100.00;148355.94;5093233;28;20227;-63
2022/12/18 09:38:47;;;;;;;31.63;20.20;;;;;;;9.19;100.00;148353.41;5092175;28;20188;-64
2022/12/18 09:41:28;;;;;;;27.63;19.50;;;;;;;9.10;100.00;148331.94;5093182;28;20690;-64
2022/12/18 09:43:59;;;;;;;29.67;20.27;;;;;;;9.06;100.00;148320.56;5092638;28;20198;-64
2022/12/18 09:46:31;;;;;;;30.50;20.27;;;;;;;9.12;100.00;148335.75;5092673;28;20237;-64
2022/12/18 09:49:02;;;;;;;24.33;18.43;;;;;;;9.11;100.00;148334.47;5092901;28;20188;-64
2022/12/18 09:51:35;;;;;;;30.47;20.20;;;;;;;9.16;100.00;148345.84;5092560;28;20254;-64
2022/12/18 09:54:06;;;;;;;25.73;19.27;;;;;;;9.15;100.00;148344.56;5092816;28;20646;-64
2022/12/18 09:56:39;;;;;;;27.47;19.40;;;;;;;9.20;100.00;148355.94;5092723;28;20666;-64
2022/12/18 09:59:07;;;;;;;26.97;19.57;;;;;;;9.28;100.00;148374.88;5092526;28;20190;-63
2022/12/18 10:01:34;;;;;;;28.83;19.90;;;;;;;9.25;100.00;148367.31;5092386;28;20283;-63
2022/12/18 10:04:01;;;;;;;30.27;20.70;;;;;;;9.26;100.00;148369.78;5092293;28;20199;-64
2022/12/18 10:06:35;;;;;;;29.87;19.23;;;;;;;9.21;100.00;148358.44;5092558;28;20704;-63
2022/12/18 10:09:12;;;;;;;27.80;19.83;;;;;;;9.11;100.00;148334.47;5092458;28;20652;-65
2022/12/18 10:11:47;;;;;;;25.23;19.13;;;;;;;9.16;100.00;148345.84;5092264;28;20188;-64
2022/12/18 10:14:23;;;;;;;28.33;19.97;;;;;;;9.08;100.00;148325.63;5092150;28;20198;-64
2022/12/18 10:17:00;;;;;;;26.67;19.67;;;;;;;9.17;100.00;148348.31;5092277;28;20692;-65
2022/12/18 10:19:38;;;;;;;29.23;18.87;;;;;;;9.07;100.00;148323.09;5092332;28;20500;-64
2022/12/18 10:22:16;;;;;;;24.37;18.67;;;;;;;9.26;100.00;148371.06;5091819;28;20253;-64
2022/12/18 10:24:54;;;;;;;25.07;18.40;;;;;;;9.34;100.00;148390.00;5091994;28;20187;-64
2022/12/18 10:27:25;;;;;;;26.53;18.17;;;;;;;9.30;100.00;148381.16;5091811;28;20606;-64
2022/12/18 10:29:52;;;;;;;23.23;17.20;;;;;;;9.46;100.00;148420.34;5091921;28;20191;-64
2022/12/18 10:32:20;;;;;;;25.00;18.67;;;;;;;9.51;100.00;148434.19;5092138;28;20624;-64
2022/12/18 10:34:47;;;;;;;31.30;18.43;;;;;;;9.54;100.00;148441.81;5091710;28;20180;-65
2022/12/18 10:37:18;;;;;;;24.07;17.70;;;;;;;9.55;100.00;148444.31;5092147;28;20223;-65
2022/12/18 10:40:05;;;;;;;23.87;17.70;;;;;;;9.43;100.00;148414.00;5091991;28;20241;-65
2022/12/18 10:42:32;;;;;;;24.13;18.37;;;;;;;9.60;100.00;148455.66;5091650;28;20184;-64
2022/12/18 10:45:04;;;;;;;24.13;17.60;;;;;;;9.51;100.00;148434.19;5091871;28;20290;-64
2022/12/18 10:47:31;;;;;;;27.17;18.90;;;;;;;9.44;100.00;148416.53;5091640;28;20199;-64
2022/12/18 10:49:58;;;;;;;23.40;18.87;;;;;;;9.61;100.00;148459.47;5090366;28;20180;-64
2022/12/18 10:52:26;;;;;;;28.20;19.40;;;;;;;9.63;100.00;148464.50;5091399;28;20200;-64
2022/12/18 10:54:58;;;;;;;24.37;19.17;;;;;;;9.55;100.00;148443.03;5091412;28;20180;-65
2022/12/18 10:57:36;;;;;;;28.40;20.00;;;;;;;9.57;100.00;148449.38;5091677;28;20735;-65
2022/12/18 11:00:23;;;;;;;24.00;18.37;;;;;;;9.50;100.00;148431.72;5091744;28;20608;-65
2022/12/18 11:02:50;;;;;;;23.17;18.43;;;;;;;9.53;100.00;148439.28;5091753;28;20238;-65
2022/12/18 11:05:29;;;;;;;24.47;18.87;;;;;;;9.32;100.00;148384.97;5091377;28;20246;-64
2022/12/18 11:07:57;;;;;;;27.17;19.10;;;;;;;9.42;100.00;148410.25;5091662;28;20191;-64
2022/12/18 11:10:29;;;;;;;28.53;19.87;;;;;;;9.26;100.00;148371.06;5091588;28;20184;-63
2022/12/18 11:12:56;;;;;;;28.33;20.10;;;;;;;9.34;100.00;148391.25;5091563;28;20211;-63
2022/12/18 11:15:29;;;;;;;27.07;19.97;;;;;;;9.38;100.00;148400.09;5091442;28;20190;-65
2022/12/18 11:17:56;;;;;;;28.63;19.40;;;;;;;9.44;100.00;148415.25;5091156;28;20281;-63
2022/12/18 11:20:32;;;;;;;27.47;19.63;;;;;;;9.50;100.00;148431.72;5091492;28;20184;-64
2022/12/18 11:23:01;;;;;;;29.40;20.43;;;;;;;9.50;100.00;148431.72;5091278;28;20241;-64
2022/12/18 11:25:34;;;;;;;33.63;22.03;;;;;;;9.64;100.00;148465.78;5091351;28;20652;-63
2022/12/18 11:28:02;;;;;;;34.93;21.50;;;;;;;9.65;100.00;148468.31;5091475;28;20554;-65